createdAt,value
2018-01-06T00:00:09.476Z,4.96
2018-01-06T00:02:36.919Z,4.90
2018-01-06T00:05:04.335Z,4.85
2018-01-06T00:07:31.749Z,4.82
2018-01-06T00:09:59.184Z,4.80
2018-01-06T00:12:26.609Z,4.79
2018-01-06T00:14:54.063Z,4.77
2018-01-06T00:17:21.490Z,4.72
2018-01-06T00:19:48.921Z,4.72
2018-01-06T00:22:16.373Z,4.75
2018-01-06T00:24:43.797Z,4.76
2018-01-06T00:27:11.233Z,4.80
2018-01-06T00:29:38.684Z,4.79
2018-01-06T00:32:06.103Z,4.78
2018-01-06T00:34:33.526Z,4.84
2018-01-06T00:37:00.978Z,4.86
2018-01-06T00:39:28.404Z,4.94
2018-01-06T00:41:55.823Z,5.03
2018-01-06T00:44:23.264Z,5.13
2018-01-06T00:46:50.687Z,5.17
2018-01-06T00:49:18.097Z,5.20
2018-01-06T00:51:45.539Z,5.24
2018-01-06T00:54:12.959Z,5.23
2018-01-06T00:56:40.376Z,5.20
2018-01-06T00:59:07.800Z,5.17
2018-01-06T01:01:35.232Z,5.18
2018-01-06T01:04:02.686Z,5.20
2018-01-06T01:06:30.123Z,5.21
2018-01-06T01:08:57.535Z,5.24
2018-01-06T01:11:24.992Z,5.24
2018-01-06T01:13:52.405Z,5.27
2018-01-06T01:16:19.844Z,5.28
2018-01-06T01:18:47.263Z,5.32
2018-01-06T01:21:14.681Z,5.32
2018-01-06T01:23:42.121Z,5.33
2018-01-06T01:26:09.533Z,5.33
2018-01-06T01:28:36.948Z,5.30
2018-01-06T01:31:04.384Z,5.26
2018-01-06T01:33:31.803Z,5.21
2018-01-06T01:35:59.251Z,5.16
2018-01-06T01:38:26.676Z,5.15
2018-01-06T01:40:54.084Z,5.29
2018-01-06T01:43:21.519Z,5.27
2018-01-06T01:45:48.947Z,5.25
2018-01-06T01:48:16.376Z,5.24
2018-01-06T01:50:43.788Z,5.23
2018-01-06T01:53:11.200Z,5.23
2018-01-06T01:55:38.640Z,5.25
2018-01-06T01:58:06.052Z,5.27
2018-01-06T02:00:33.455Z,5.32
2018-01-06T02:03:00.934Z,5.30
2018-01-06T02:05:28.354Z,5.32
2018-01-06T02:07:55.775Z,5.35
2018-01-06T02:10:23.201Z,5.39
2018-01-06T02:12:50.640Z,5.42
2018-01-06T02:15:18.073Z,5.44
2018-01-06T02:17:45.480Z,5.45
2018-01-06T02:20:12.894Z,5.43
2018-01-06T02:22:40.467Z,5.40
2018-01-06T02:25:07.885Z,5.38
2018-01-06T02:27:35.292Z,5.36
2018-01-06T02:30:02.733Z,5.34
2018-01-06T02:32:30.148Z,5.37
2018-01-06T02:34:57.565Z,5.39
2018-01-06T02:37:24.993Z,5.40
2018-01-06T02:39:52.420Z,5.35
2018-01-06T02:42:19.832Z,5.33
2018-01-06T02:44:47.264Z,5.29
2018-01-06T02:47:14.696Z,5.25
2018-01-06T02:49:42.120Z,5.21
2018-01-06T02:52:09.594Z,5.15
2018-01-06T02:54:36.982Z,5.10
2018-01-06T02:57:04.409Z,5.07
2018-01-06T02:59:31.824Z,5.03
2018-01-06T03:01:59.258Z,5.01
2018-01-06T03:04:26.684Z,5.01
2018-01-06T03:06:54.120Z,4.99
2018-01-06T03:09:21.533Z,4.95
2018-01-06T03:11:48.965Z,4.91
2018-01-06T03:14:16.397Z,4.88
2018-01-06T03:16:43.804Z,4.84
2018-01-06T03:19:11.238Z,4.79
2018-01-06T03:21:38.648Z,4.79
2018-01-06T03:24:06.053Z,4.77
2018-01-06T03:26:33.504Z,4.77
2018-01-06T03:29:00.924Z,4.72
2018-01-06T03:31:28.339Z,4.73
2018-01-06T03:33:55.811Z,4.71
2018-01-06T03:36:23.221Z,4.68
2018-01-06T03:38:50.639Z,4.64
2018-01-06T03:41:18.065Z,4.59
2018-01-06T03:43:45.481Z,4.56
2018-01-06T03:46:12.924Z,4.55
2018-01-06T03:48:40.341Z,4.56
2018-01-06T03:51:07.766Z,4.55
2018-01-06T03:53:36.076Z,4.54
2018-01-06T03:56:03.486Z,4.53
2018-01-06T03:58:30.921Z,4.55
2018-01-06T04:00:58.336Z,4.55
2018-01-06T04:03:25.745Z,4.54
2018-01-06T04:05:53.184Z,4.52
2018-01-06T04:08:20.608Z,4.49
2018-01-06T04:10:48.031Z,4.46
2018-01-06T04:13:15.466Z,4.45
2018-01-06T04:15:42.881Z,4.43
2018-01-06T04:18:10.297Z,4.41
2018-01-06T04:20:37.736Z,4.38
2018-01-06T04:23:05.168Z,4.36
2018-01-06T04:25:32.574Z,4.35
2018-01-06T04:28:00.002Z,4.35
2018-01-06T04:30:27.412Z,4.33
2018-01-06T04:32:54.823Z,4.33
2018-01-06T04:35:22.257Z,4.30
2018-01-06T04:37:49.668Z,4.29
2018-01-06T04:40:17.116Z,4.30
2018-01-06T04:42:44.529Z,4.28
2018-01-06T04:45:11.940Z,4.28
2018-01-06T04:47:44.263Z,4.28
2018-01-06T04:50:11.723Z,4.28
2018-01-06T04:52:39.111Z,4.29
2018-01-06T04:55:06.546Z,4.29
2018-01-06T04:57:33.971Z,4.30
2018-01-06T05:00:01.394Z,4.31
2018-01-06T05:02:28.857Z,4.32
2018-01-06T05:04:56.273Z,4.31
2018-01-06T05:07:23.701Z,4.36
2018-01-06T05:09:51.133Z,4.43
2018-01-06T05:12:18.551Z,4.49
2018-01-06T05:14:45.985Z,4.54
2018-01-06T05:17:13.400Z,4.54
2018-01-06T05:19:40.816Z,4.54
2018-01-06T05:22:08.306Z,4.55
2018-01-06T05:24:35.715Z,4.59
2018-01-06T05:27:03.136Z,4.66
2018-01-06T05:29:30.567Z,4.71
2018-01-06T05:31:57.984Z,4.72
2018-01-06T05:34:25.402Z,4.69
2018-01-06T05:36:52.833Z,4.62
2018-01-06T05:39:20.252Z,4.54
2018-01-06T05:44:21.557Z,4.40
2018-01-06T05:46:48.972Z,4.37
2018-01-06T05:49:16.392Z,4.34
2018-01-06T05:51:43.860Z,4.33
2018-01-06T05:54:11.283Z,4.32
2018-01-06T05:56:38.712Z,4.32
2018-01-06T05:59:06.148Z,4.31
2018-01-06T06:01:33.556Z,4.28
2018-01-06T06:04:01.008Z,4.27
2018-01-06T06:06:28.441Z,4.28
2018-01-06T06:08:55.862Z,4.29
2018-01-06T06:11:23.817Z,4.28
2018-01-06T06:13:51.232Z,4.29
2018-01-06T06:16:18.664Z,4.29
2018-01-06T06:18:46.120Z,4.30
2018-01-06T06:21:13.549Z,4.30
2018-01-06T06:23:40.972Z,4.31
2018-01-06T06:26:08.436Z,4.32
2018-01-06T06:28:35.865Z,4.33
2018-01-06T06:31:03.293Z,4.34
2018-01-06T06:33:30.733Z,4.34
2018-01-06T06:35:58.149Z,4.36
2018-01-06T06:38:25.573Z,4.38
2018-01-06T06:40:53.025Z,4.42
2018-01-06T06:43:20.476Z,4.44
2018-01-06T06:45:47.893Z,4.43
2018-01-06T06:48:15.577Z,4.42
2018-01-06T06:50:43.010Z,4.43
2018-01-06T06:53:10.434Z,4.46
2018-01-06T06:55:37.873Z,4.46
2018-01-06T06:58:05.294Z,4.49
2018-01-06T07:00:32.739Z,4.52
2018-01-06T07:03:00.172Z,4.54
2018-01-06T07:05:27.610Z,4.53
2018-01-06T07:07:55.049Z,4.53
2018-01-06T07:10:27.336Z,4.54
2018-01-06T07:12:54.764Z,4.53
2018-01-06T07:15:22.239Z,4.52
2018-01-06T07:17:49.681Z,4.48
2018-01-06T07:20:17.104Z,4.45
2018-01-06T07:22:44.554Z,4.43
2018-01-06T07:25:11.972Z,4.44
2018-01-06T07:27:39.392Z,4.44
2018-01-06T07:30:06.833Z,4.43
2018-01-06T07:32:34.252Z,4.44
2018-01-06T07:35:01.717Z,4.43
2018-01-06T07:37:29.165Z,4.42
2018-01-06T07:39:56.588Z,4.44
2018-01-06T07:42:24.016Z,4.45
2018-01-06T07:44:51.439Z,4.44
2018-01-06T07:47:18.855Z,4.44
2018-01-06T07:49:46.326Z,4.44
2018-01-06T07:52:13.742Z,4.48
2018-01-06T07:54:41.161Z,4.51
2018-01-06T07:57:08.616Z,4.55
2018-01-06T07:59:36.063Z,4.60
2018-01-06T08:02:03.485Z,4.62
2018-01-06T08:04:30.928Z,4.60
2018-01-06T08:06:58.344Z,4.58
2018-01-06T08:09:25.788Z,4.62
2018-01-06T08:11:53.232Z,4.66
2018-01-06T08:14:20.651Z,4.69
2018-01-06T08:16:48.074Z,4.71
2018-01-06T08:19:15.512Z,4.72
2018-01-06T08:21:42.949Z,4.74
2018-01-06T08:24:10.368Z,4.76
2018-01-06T08:26:37.806Z,4.78
2018-01-06T08:29:05.260Z,4.78
2018-01-06T08:31:32.668Z,4.80
2018-01-06T08:34:00.098Z,4.82
2018-01-06T08:36:27.524Z,4.84
2018-01-06T08:38:55.072Z,4.87
2018-01-06T08:41:22.490Z,4.92
2018-01-06T08:43:49.908Z,4.96
2018-01-06T08:46:17.354Z,5.00
2018-01-06T08:48:44.776Z,5.03
2018-01-06T08:51:12.208Z,5.11
2018-01-06T08:53:39.629Z,5.15
2018-01-06T08:56:07.048Z,5.21
2018-01-06T08:58:34.488Z,5.26
2018-01-06T09:01:01.918Z,5.32
2018-01-06T09:03:29.337Z,5.38
2018-01-06T09:05:56.780Z,5.42
2018-01-06T09:08:24.193Z,5.48
2018-01-06T09:10:51.612Z,5.52
2018-01-06T09:13:19.067Z,5.55
2018-01-06T09:15:46.497Z,5.57
2018-01-06T09:18:13.925Z,5.61
2018-01-06T09:20:41.366Z,5.65
2018-01-06T09:23:08.795Z,5.68
2018-01-06T09:25:36.260Z,5.73
2018-01-06T09:28:03.684Z,5.82
2018-01-06T09:30:31.099Z,5.90
2018-01-06T09:32:58.536Z,5.97
2018-01-06T09:35:25.978Z,6.04
2018-01-06T09:37:53.403Z,6.09
2018-01-06T09:40:20.853Z,6.09
2018-01-06T09:42:48.282Z,6.07
2018-01-06T09:45:15.757Z,6.04
2018-01-06T09:47:43.197Z,6.00
2018-01-06T09:50:10.660Z,5.98
2018-01-06T09:52:38.081Z,5.87
2018-01-06T09:55:05.522Z,5.84
2018-01-06T09:57:32.953Z,5.85
2018-01-06T10:00:00.373Z,5.86
2018-01-06T10:02:27.805Z,5.87
2018-01-06T10:04:55.218Z,5.88
2018-01-06T10:07:22.640Z,5.88
2018-01-06T10:09:50.199Z,5.89
2018-01-06T10:12:17.683Z,5.88
2018-01-06T10:14:45.080Z,5.94
2018-01-06T10:17:12.535Z,6.02
2018-01-06T10:19:39.978Z,6.08
2018-01-06T10:22:07.398Z,6.06
2018-01-06T10:24:34.831Z,6.07
2018-01-06T10:27:02.263Z,6.11
2018-01-06T10:29:29.683Z,6.15
2018-01-06T10:31:57.130Z,6.23
2018-01-06T10:34:24.621Z,6.30
2018-01-06T10:36:52.046Z,6.37
2018-01-06T10:39:19.473Z,6.42
2018-01-06T10:41:46.900Z,6.48
2018-01-06T10:44:14.353Z,6.55
2018-01-06T10:46:41.780Z,6.59
2018-01-06T10:49:09.218Z,6.68
2018-01-06T10:51:36.672Z,6.73
2018-01-06T10:54:04.097Z,6.81
2018-01-06T10:56:31.529Z,6.88
2018-01-06T10:58:58.969Z,6.93
2018-01-06T11:01:32.196Z,7.00
2018-01-06T11:03:59.667Z,7.06
2018-01-06T11:06:27.080Z,6.98
2018-01-06T11:08:54.540Z,6.90
2018-01-06T11:11:21.973Z,6.81
2018-01-06T11:13:49.392Z,6.74
2018-01-06T11:16:16.833Z,6.71
2018-01-06T11:18:44.281Z,6.69
2018-01-06T11:21:12.124Z,6.64
2018-01-06T11:23:39.563Z,6.61
2018-01-06T11:26:07.006Z,6.65
2018-01-06T11:28:34.432Z,6.66
2018-01-06T11:31:01.891Z,6.63
2018-01-06T11:33:29.335Z,6.62
2018-01-06T11:35:56.758Z,6.63
2018-01-06T11:38:24.200Z,6.65
2018-01-06T11:40:51.616Z,6.66
2018-01-06T11:43:19.052Z,6.67
2018-01-06T11:45:46.497Z,6.67
2018-01-06T11:48:13.944Z,6.68
2018-01-06T11:50:41.368Z,6.68
2018-01-06T11:53:08.791Z,6.68
2018-01-06T11:55:36.228Z,6.67
2018-01-06T11:58:03.672Z,6.68
2018-01-06T12:00:31.103Z,6.71
2018-01-06T12:02:58.556Z,6.73
2018-01-06T12:05:25.991Z,6.77
2018-01-06T12:07:53.412Z,6.89
2018-01-06T12:10:20.865Z,6.99
2018-01-06T12:12:48.282Z,6.97
2018-01-06T12:15:15.728Z,6.92
2018-01-06T12:17:43.180Z,6.88
2018-01-06T12:20:10.612Z,6.84
2018-01-06T12:22:38.036Z,6.82
2018-01-06T12:25:05.472Z,6.81
2018-01-06T12:27:32.904Z,6.83
2018-01-06T12:30:00.352Z,6.87
2018-01-06T12:32:27.857Z,6.92
2018-01-06T12:34:55.281Z,6.96
2018-01-06T12:37:22.723Z,7.02
2018-01-06T12:39:50.148Z,7.04
2018-01-06T12:42:17.585Z,7.09
2018-01-06T12:44:45.048Z,7.12
2018-01-06T12:47:12.470Z,7.14
2018-01-06T12:49:39.890Z,7.13
2018-01-06T12:52:07.321Z,7.15
2018-01-06T12:54:34.734Z,7.15
2018-01-06T12:57:02.199Z,7.13
2018-01-06T12:59:29.626Z,7.16
2018-01-06T13:01:57.051Z,7.22
2018-01-06T13:04:24.481Z,7.29
2018-01-06T13:06:52.005Z,7.33
2018-01-06T13:09:19.426Z,7.39
2018-01-06T13:11:46.916Z,7.41
2018-01-06T13:14:14.376Z,7.45
2018-01-06T13:16:41.789Z,7.44
2018-01-06T13:19:09.244Z,7.44
2018-01-06T13:21:36.728Z,7.45
2018-01-06T13:24:04.137Z,7.46
2018-01-06T13:26:31.548Z,7.67
2018-01-06T13:28:58.994Z,7.85
2018-01-06T13:31:26.405Z,8.07
2018-01-06T13:33:53.843Z,8.26
2018-01-06T13:36:21.285Z,8.48
2018-01-06T13:38:48.737Z,8.50
2018-01-06T13:41:16.152Z,8.33
2018-01-06T13:43:43.602Z,8.05
2018-01-06T13:46:11.113Z,7.86
2018-01-06T13:48:38.523Z,7.72
2018-01-06T13:51:06.133Z,7.64
2018-01-06T13:53:33.544Z,7.58
2018-01-06T13:56:00.960Z,7.51
2018-01-06T13:58:28.493Z,7.47
2018-01-06T14:00:55.935Z,7.41
2018-01-06T14:03:23.356Z,7.41
2018-01-06T14:05:50.780Z,7.39
2018-01-06T14:08:18.207Z,7.37
2018-01-06T14:10:45.681Z,7.35
2018-01-06T14:13:13.140Z,7.35
2018-01-06T14:15:40.612Z,7.37
2018-01-06T14:18:08.016Z,7.33
2018-01-06T14:20:35.460Z,7.32
2018-01-06T14:23:02.879Z,7.28
2018-01-06T14:25:30.287Z,7.26
2018-01-06T14:27:57.756Z,7.20
2018-01-06T14:30:25.164Z,7.17
2018-01-06T14:32:52.703Z,7.15
2018-01-06T14:35:20.180Z,7.13
2018-01-06T14:37:47.628Z,7.14
2018-01-06T14:40:15.062Z,7.16
2018-01-06T14:42:42.715Z,7.18
2018-01-06T14:45:10.134Z,7.17
2018-01-06T14:47:37.569Z,7.17
2018-01-06T14:50:05.221Z,7.16
2018-01-06T14:52:32.595Z,7.14
2018-01-06T14:55:00.016Z,7.13
2018-01-06T14:57:27.479Z,7.11
2018-01-06T14:59:54.888Z,7.12
2018-01-06T15:02:22.297Z,7.11
2018-01-06T15:04:49.720Z,7.10
2018-01-06T15:07:17.277Z,7.08
2018-01-06T15:09:44.706Z,7.06
2018-01-06T15:12:12.119Z,7.04
2018-01-06T15:14:39.545Z,7.05
2018-01-06T15:17:07.020Z,7.31
2018-01-06T15:19:34.436Z,7.25
2018-01-06T15:22:01.875Z,7.18
2018-01-06T15:24:29.299Z,7.11
2018-01-06T15:26:56.730Z,7.07
2018-01-06T15:29:24.180Z,7.05
2018-01-06T15:31:51.613Z,7.01
2018-01-06T15:34:19.117Z,6.98
2018-01-06T15:36:46.545Z,6.97
2018-01-06T15:39:13.970Z,6.94
2018-01-06T15:41:41.384Z,6.92
2018-01-06T15:44:08.826Z,6.89
2018-01-06T15:46:36.310Z,6.89
2018-01-06T15:49:03.725Z,6.89
2018-01-06T15:51:31.153Z,6.90
2018-01-06T15:53:58.598Z,6.90
2018-01-06T15:56:26.131Z,6.91
2018-01-06T15:58:53.579Z,6.90
2018-01-06T16:01:21.035Z,6.90
2018-01-06T16:03:48.491Z,6.90
2018-01-06T16:06:15.903Z,6.91
2018-01-06T16:08:43.318Z,6.92
2018-01-06T16:11:10.770Z,6.92
2018-01-06T16:13:38.186Z,6.92
2018-01-06T16:16:05.631Z,6.92
2018-01-06T16:18:33.047Z,6.91
2018-01-06T16:21:00.474Z,6.89
2018-01-06T16:23:27.904Z,6.87
2018-01-06T16:25:55.338Z,6.85
2018-01-06T16:28:22.864Z,6.82
2018-01-06T16:30:50.296Z,6.81
2018-01-06T16:33:17.707Z,6.77
2018-01-06T16:35:45.144Z,6.75
2018-01-06T16:38:12.571Z,6.69
2018-01-06T16:40:39.994Z,6.66
2018-01-06T16:43:07.444Z,6.62
2018-01-06T16:45:35.143Z,6.59
2018-01-06T16:48:02.568Z,6.56
2018-01-06T16:50:29.995Z,6.55
2018-01-06T16:52:57.413Z,6.54
2018-01-06T16:55:24.826Z,6.54
2018-01-06T16:57:52.256Z,6.55
2018-01-06T17:00:19.679Z,6.54
2018-01-06T17:02:47.134Z,6.53
2018-01-06T17:05:14.592Z,6.54
2018-01-06T17:07:42.059Z,6.53
2018-01-06T17:10:09.484Z,6.50
2018-01-06T17:12:36.918Z,6.50
2018-01-06T17:15:04.431Z,6.50
2018-01-06T17:17:31.876Z,6.52
2018-01-06T17:19:59.291Z,6.56
2018-01-06T17:22:26.808Z,6.56
2018-01-06T17:24:54.220Z,6.57
2018-01-06T17:27:21.629Z,6.57
2018-01-06T17:29:49.164Z,6.61
2018-01-06T17:32:16.620Z,6.65
2018-01-06T17:34:44.096Z,6.66
2018-01-06T17:37:11.522Z,6.64
2018-01-06T17:39:39.015Z,6.61
2018-01-06T17:42:06.427Z,6.59
2018-01-06T17:44:33.875Z,6.56
2018-01-06T17:47:01.797Z,6.55
2018-01-06T17:49:29.214Z,6.55
2018-01-06T17:51:56.644Z,6.52
2018-01-06T17:54:24.054Z,6.54
2018-01-06T17:56:51.491Z,6.55
2018-01-06T17:59:18.952Z,6.54
2018-01-06T18:01:46.424Z,6.55
2018-01-06T18:04:13.848Z,6.78
2018-01-06T18:06:41.263Z,6.75
2018-01-06T18:09:08.692Z,6.70
2018-01-06T18:11:36.171Z,6.66
2018-01-06T18:14:03.599Z,6.57
2018-01-06T18:16:31.024Z,6.48
2018-01-06T18:18:58.522Z,6.40
2018-01-06T18:21:25.979Z,6.38
2018-01-06T18:23:53.399Z,6.38
2018-01-06T18:26:20.834Z,6.36
2018-01-06T18:28:48.248Z,6.35
2018-01-06T18:31:15.707Z,6.36
2018-01-06T18:33:43.147Z,6.34
2018-01-06T18:36:10.627Z,6.32
2018-01-06T18:38:38.044Z,6.30
2018-01-06T18:41:05.470Z,6.25
2018-01-06T18:43:32.893Z,6.23
2018-01-06T18:46:00.312Z,6.21
2018-01-06T18:48:27.768Z,6.14
2018-01-06T18:50:55.188Z,6.07
2018-01-06T18:53:22.716Z,6.02
2018-01-06T18:55:50.149Z,6.08
2018-01-06T18:58:17.578Z,6.09
2018-01-06T19:00:44.987Z,6.09
2018-01-06T19:03:12.432Z,6.09
2018-01-06T19:05:39.854Z,6.11
2018-01-06T19:08:07.355Z,6.07
2018-01-06T19:10:34.770Z,6.00
2018-01-06T19:13:02.266Z,6.01
2018-01-06T19:15:29.690Z,6.01
2018-01-06T19:17:58.071Z,5.99
2018-01-06T19:20:25.482Z,5.94
2018-01-06T19:22:52.942Z,5.89
2018-01-06T19:25:20.416Z,5.82
2018-01-06T19:27:47.795Z,5.76
2018-01-06T19:30:15.216Z,5.71
2018-01-06T19:32:42.646Z,5.73
2018-01-06T19:35:10.083Z,5.69
2018-01-06T19:37:37.560Z,5.69
2018-01-06T19:40:04.965Z,5.70
2018-01-06T19:42:32.382Z,5.71
2018-01-06T19:44:59.840Z,5.71
2018-01-06T19:47:27.389Z,5.69
2018-01-06T19:49:54.801Z,5.69
2018-01-06T19:52:22.208Z,5.63
2018-01-06T19:54:49.659Z,5.62
2018-01-06T19:57:17.103Z,5.65
2018-01-06T19:59:44.532Z,5.63
2018-01-06T20:02:11.947Z,5.61
2018-01-06T20:04:39.351Z,5.59
2018-01-06T20:07:06.885Z,5.58
2018-01-06T20:09:34.295Z,5.64
2018-01-06T20:12:01.706Z,5.64
2018-01-06T20:14:29.144Z,5.65
2018-01-06T20:16:56.564Z,5.64
2018-01-06T20:19:24.041Z,5.63
2018-01-06T20:21:51.473Z,5.62
2018-01-06T20:24:18.898Z,5.59
2018-01-06T20:26:46.322Z,5.61
2018-01-06T20:29:13.875Z,5.60
2018-01-06T20:31:41.265Z,5.64
2018-01-06T20:34:08.688Z,5.61
2018-01-06T20:36:36.123Z,5.61
2018-01-06T20:39:03.559Z,5.60
2018-01-06T20:41:30.972Z,5.60
2018-01-06T20:43:58.397Z,5.57
2018-01-06T20:46:25.843Z,5.51
2018-01-06T20:48:53.271Z,5.52
2018-01-06T20:51:20.739Z,5.59
2018-01-06T20:53:48.226Z,5.65
2018-01-06T20:56:15.641Z,5.68
2018-01-06T20:58:43.066Z,5.71
2018-01-06T21:01:10.484Z,5.64
2018-01-06T21:03:37.898Z,5.64
2018-01-06T21:06:05.338Z,5.65
2018-01-06T21:08:32.822Z,5.66
2018-01-06T21:11:00.231Z,5.61
2018-01-06T21:13:27.750Z,5.65
2018-01-06T21:15:55.155Z,5.67
2018-01-06T21:18:22.619Z,5.63
2018-01-06T21:20:50.047Z,5.60
2018-01-06T21:23:17.455Z,5.51
2018-01-06T21:25:44.929Z,5.44
2018-01-06T21:28:12.400Z,5.40
2018-01-06T21:30:39.827Z,5.42
2018-01-06T21:33:07.299Z,5.34
2018-01-06T21:35:34.758Z,5.26
2018-01-06T21:38:02.172Z,5.21
2018-01-06T21:40:29.691Z,5.15
2018-01-06T21:42:57.101Z,5.17
2018-01-06T21:45:24.536Z,5.19
2018-01-06T21:47:51.976Z,5.17
2018-01-06T21:50:19.438Z,5.09
2018-01-06T21:52:46.875Z,5.04
2018-01-06T21:55:14.286Z,5.01
2018-01-06T21:57:41.722Z,4.93
2018-01-06T22:00:09.148Z,4.96
2018-01-06T22:02:36.562Z,4.93
2018-01-06T22:05:03.987Z,4.92
2018-01-06T22:07:31.532Z,4.90
2018-01-06T22:09:59.360Z,4.90
2018-01-06T22:12:26.827Z,4.89
2018-01-06T22:14:54.259Z,4.86
2018-01-06T22:17:21.861Z,4.91
2018-01-06T22:19:49.559Z,4.92
2018-01-06T22:22:17.249Z,4.91
2018-01-06T22:24:44.839Z,4.90
2018-01-06T22:27:12.307Z,4.90
2018-01-06T22:29:39.735Z,4.88
2018-01-06T22:32:07.161Z,4.91
2018-01-06T22:34:34.594Z,4.87
2018-01-06T22:37:02.020Z,4.83
2018-01-06T22:39:29.436Z,4.83
2018-01-06T22:41:56.871Z,4.85
2018-01-06T22:44:24.293Z,4.83
2018-01-06T22:46:51.750Z,4.85
2018-01-06T22:49:19.211Z,4.90
2018-01-06T22:51:46.626Z,4.88
2018-01-06T22:54:14.051Z,4.80
2018-01-06T22:56:41.470Z,4.78
2018-01-06T22:59:08.882Z,4.70
2018-01-06T23:01:36.300Z,4.71
2018-01-06T23:04:03.730Z,4.67
2018-01-06T23:06:31.184Z,4.64
2018-01-06T23:08:58.604Z,4.59
2018-01-06T23:11:26.008Z,4.63
2018-01-06T23:13:53.445Z,4.60
2018-01-06T23:16:20.903Z,4.55
2018-01-06T23:18:48.401Z,4.55
2018-01-06T23:21:15.807Z,4.56
2018-01-06T23:23:43.210Z,4.61
2018-01-06T23:26:10.618Z,4.60
2018-01-06T23:28:38.085Z,4.51
2018-01-06T23:31:05.563Z,4.48
2018-01-06T23:33:32.975Z,4.44
2018-01-06T23:36:00.400Z,4.43
2018-01-06T23:38:27.824Z,4.38
2018-01-06T23:40:55.294Z,4.36
2018-01-06T23:43:22.700Z,4.38
2018-01-06T23:45:50.126Z,4.39
2018-01-06T23:48:17.539Z,4.35
2018-01-06T23:50:44.953Z,4.41
2018-01-06T23:53:12.379Z,4.34
2018-01-06T23:55:39.788Z,4.30
2018-01-06T23:58:07.273Z,4.34
